Time;durP1;ratioP1;P1;durP2;ratioP2;P2;SDS_P1;SDS_P2;PMS_P1;PMS_P2;Temp;Humidity;BMP_temperature;BMP_pressure;BME280_temperature;BME280_humidity;BME280_pressure;Samples;Min_cycle;Max_cycle;Signal;HPM_P1;HPM_P2
2022/05/08 00:00:14;;;;;;;14.90;4.45;;;8.80;99.90;;;;;;5068306;28;20447;-50
2022/05/08 00:02:40;;;;;;;18.73;4.18;;;8.80;99.90;;;;;;5052853;28;20378;-51
2022/05/08 00:05:09;;;;;;;16.45;4.30;;;8.80;99.90;;;;;;5052813;28;20076;-50
2022/05/08 00:07:35;;;;;;;19.88;4.35;;;8.80;99.90;;;;;;5052756;28;20048;-62
2022/05/08 00:10:01;;;;;;;14.40;4.80;;;8.70;99.90;;;;;;5052894;28;20037;-62
2022/05/08 00:12:26;;;;;;;13.43;3.85;;;8.60;99.90;;;;;;5072705;28;20089;-62
2022/05/08 00:14:52;;;;;;;16.15;4.72;;;8.70;99.90;;;;;;5072644;28;20047;-62
2022/05/08 00:17:18;;;;;;;16.27;5.22;;;8.60;99.90;;;;;;5072486;28;20072;-62
2022/05/08 00:19:47;;;;;;;16.15;4.10;;;8.60;99.90;;;;;;5071168;28;20048;-52
2022/05/08 00:22:13;;;;;;;15.38;4.32;;;8.60;99.90;;;;;;5072062;28;20524;-49
2022/05/08 00:24:39;;;;;;;18.13;5.43;;;8.60;99.90;;;;;;5072117;28;20048;-50
2022/05/08 00:27:06;;;;;;;17.08;4.50;;;8.60;99.90;;;;;;5072534;28;20380;-62
2022/05/08 00:29:32;;;;;;;18.45;5.40;;;8.50;99.90;;;;;;5072320;28;20043;-62
2022/05/08 00:31:58;;;;;;;15.18;4.85;;;8.50;99.90;;;;;;5072487;28;20029;-62
2022/05/08 00:34:24;;;;;;;20.75;6.00;;;8.40;99.90;;;;;;5072369;28;20647;-62
2022/05/08 00:36:50;;;;;;;15.02;4.55;;;8.40;99.90;;;;;;5072226;28;20051;-62
2022/05/08 00:39:20;;;;;;;18.02;4.50;;;8.40;99.90;;;;;;5072148;28;20040;-57
2022/05/08 00:41:46;;;;;;;17.05;4.95;;;8.30;99.90;;;;;;5072318;28;20094;-51
2022/05/08 00:44:13;;;;;;;17.75;4.88;;;8.30;99.90;;;;;;5070942;28;20043;-49
2022/05/08 00:46:39;;;;;;;18.73;4.93;;;8.30;99.90;;;;;;5072195;28;20115;-53
2022/05/08 00:49:05;;;;;;;17.40;4.53;;;8.30;99.90;;;;;;5072251;28;20079;-51
2022/05/08 00:51:31;;;;;;;15.40;4.50;;;8.30;99.90;;;;;;5072215;28;20075;-52
2022/05/08 00:54:00;;;;;;;12.68;4.45;;;8.20;99.90;;;;;;5072277;28;20051;-62
2022/05/08 00:56:26;;;;;;;18.85;4.75;;;8.20;99.90;;;;;;5072235;28;20040;-62
2022/05/08 00:58:52;;;;;;;17.98;4.25;;;8.20;99.90;;;;;;5072127;28;20040;-55
2022/05/08 01:01:18;;;;;;;16.15;4.20;;;8.20;99.90;;;;;;5058745;28;20037;-62
2022/05/08 01:03:44;;;;;;;18.45;4.60;;;8.10;99.90;;;;;;5051959;28;20044;-62
2022/05/08 01:06:15;;;;;;;16.20;4.22;;;8.10;99.90;;;;;;5051990;28;20050;-50
2022/05/08 01:08:49;;;;;;;14.80;5.28;;;8.10;99.90;;;;;;5051949;28;20044;-52
2022/05/08 01:11:15;;;;;;;12.38;4.53;;;8.10;99.90;;;;;;5062699;28;20041;-52
2022/05/08 01:13:42;;;;;;;15.50;3.75;;;8.10;99.90;;;;;;5070914;28;20082;-49
2022/05/08 01:16:09;;;;;;;12.20;3.65;;;8.10;99.90;;;;;;5072005;28;20049;-49
2022/05/08 01:18:35;;;;;;;16.92;4.35;;;8.10;99.90;;;;;;5070795;28;20389;-62
2022/05/08 01:21:02;;;;;;;15.43;4.07;;;8.10;99.90;;;;;;5071922;28;20127;-62
2022/05/08 01:23:27;;;;;;;17.15;3.50;;;8.10;99.90;;;;;;5071716;28;20101;-62
2022/05/08 01:25:55;;;;;;;18.10;4.75;;;8.00;99.90;;;;;;5071686;28;20053;-61
2022/05/08 01:28:23;;;;;;;9.95;3.22;;;8.00;99.90;;;;;;5071956;28;20036;-49
2022/05/08 01:30:51;;;;;;;14.65;3.85;;;8.00;99.90;;;;;;5071700;28;20509;-49
2022/05/08 01:33:17;;;;;;;15.35;3.65;;;7.90;99.90;;;;;;5073118;28;20037;-49
2022/05/08 01:35:43;;;;;;;18.63;4.22;;;7.90;99.90;;;;;;5075705;28;20132;-62
2022/05/08 01:38:10;;;;;;;21.05;4.50;;;7.90;99.90;;;;;;5075657;28;20514;-49
2022/05/08 01:40:36;;;;;;;17.45;4.15;;;7.90;99.90;;;;;;5075378;28;20044;-49
2022/05/08 01:43:02;;;;;;;13.52;3.65;;;7.90;99.90;;;;;;5075477;28;20040;-61
2022/05/08 01:45:28;;;;;;;16.88;4.13;;;7.80;99.90;;;;;;5075255;28;20044;-62
2022/05/08 01:50:39;;;;;;;14.80;4.05;;;7.80;99.90;;;;;;5075329;28;20056;-49
2022/05/08 01:53:06;;;;;;;16.48;4.40;;;7.80;99.90;;;;;;5075100;28;20049;-49
2022/05/08 01:55:32;;;;;;;14.70;4.28;;;7.80;99.90;;;;;;5075215;28;20044;-51
2022/05/08 01:57:58;;;;;;;13.52;4.20;;;7.80;99.90;;;;;;5075105;28;20043;-50
2022/05/08 02:00:25;;;;;;;12.88;3.65;;;7.70;99.90;;;;;;5067767;28;20045;-49
2022/05/08 02:02:52;;;;;;;15.20;3.97;;;7.70;99.90;;;;;;5055192;28;20449;-52
2022/05/08 02:05:21;;;;;;;13.32;4.95;;;7.70;99.90;;;;;;5054981;28;20045;-49
2022/05/08 02:07:47;;;;;;;14.73;4.28;;;7.70;99.90;;;;;;5055077;28;20041;-50
2022/05/08 02:10:14;;;;;;;13.60;3.85;;;7.70;99.90;;;;;;5055772;28;20374;-52
2022/05/08 02:12:40;;;;;;;12.27;3.85;;;7.50;99.90;;;;;;5073509;28;20048;-51
2022/05/08 02:15:08;;;;;;;14.00;3.80;;;7.60;99.90;;;;;;5073603;28;20088;-49
2022/05/08 02:17:35;;;;;;;13.85;3.55;;;7.60;99.90;;;;;;5074846;28;20080;-62
2022/05/08 02:20:02;;;;;;;13.10;4.32;;;7.60;99.90;;;;;;5074786;28;20043;-48
2022/05/08 02:22:28;;;;;;;15.15;4.20;;;7.50;99.90;;;;;;5073394;28;20115;-48
2022/05/08 02:24:54;;;;;;;16.55;3.65;;;7.40;99.90;;;;;;5074436;28;20145;-48
2022/05/08 02:27:20;;;;;;;20.13;5.28;;;7.40;99.90;;;;;;5073333;28;20072;-48
2022/05/08 02:29:49;;;;;;;16.60;4.50;;;7.30;99.90;;;;;;5074770;28;20044;-50
2022/05/08 02:32:16;;;;;;;12.30;4.03;;;7.40;99.90;;;;;;5074513;28;20048;-50
2022/05/08 02:34:42;;;;;;;16.15;3.70;;;7.40;99.90;;;;;;5074527;28;20385;-48
2022/05/08 02:37:08;;;;;;;12.00;3.58;;;7.30;99.90;;;;;;5074473;28;20480;-62
2022/05/08 02:39:33;;;;;;;17.48;4.03;;;7.30;99.90;;;;;;5074405;28;20112;-62
2022/05/08 02:41:59;;;;;;;12.95;3.90;;;7.20;99.90;;;;;;5074271;28;20485;-62
2022/05/08 02:44:25;;;;;;;16.23;3.60;;;7.20;99.90;;;;;;5073371;28;20045;-61
2022/05/08 02:46:50;;;;;;;12.52;3.55;;;7.10;99.90;;;;;;5073128;28;20033;-62
2022/05/08 02:49:16;;;;;;;10.90;3.70;;;7.10;99.90;;;;;;5074148;28;20536;-61
2022/05/08 02:51:42;;;;;;;11.52;3.53;;;7.10;99.90;;;;;;5074390;28;20044;-62
2022/05/08 02:54:08;;;;;;;17.58;4.40;;;7.20;99.90;;;;;;5074123;28;20048;-62
2022/05/08 02:59:18;;;;;;;15.73;4.35;;;7.10;99.90;;;;;;5073054;28;20185;-62
2022/05/08 03:01:44;;;;;;;18.20;5.38;;;7.10;99.90;;;;;;5056984;28;20120;-61
2022/05/08 03:04:09;;;;;;;13.93;4.90;;;7.20;99.90;;;;;;5053839;28;20041;-62
2022/05/08 03:06:35;;;;;;;10.13;3.63;;;7.10;99.90;;;;;;5053882;28;20045;-54
2022/05/08 03:09:02;;;;;;;11.13;3.45;;;7.20;99.90;;;;;;5053714;28;20048;-51
2022/05/08 03:11:32;;;;;;;11.43;4.10;;;7.20;99.90;;;;;;5066331;28;20086;-50
2022/05/08 03:13:59;;;;;;;15.27;3.92;;;7.20;99.90;;;;;;5073814;28;20044;-49
2022/05/08 03:16:28;;;;;;;12.60;3.92;;;7.30;99.90;;;;;;5072590;28;20126;-49
2022/05/08 03:18:55;;;;;;;14.95;3.35;;;7.20;99.90;;;;;;5073566;28;20487;-50
2022/05/08 03:21:21;;;;;;;14.60;3.40;;;7.20;99.90;;;;;;5073419;28;20078;-49
2022/05/08 03:23:48;;;;;;;17.95;3.42;;;7.20;99.90;;;;;;5073355;28;20044;-53
2022/05/08 03:26:15;;;;;;;10.63;3.65;;;7.20;99.90;;;;;;5073622;28;20045;-49
2022/05/08 03:28:42;;;;;;;14.52;3.47;;;7.20;99.90;;;;;;5073424;28;20037;-52
2022/05/08 03:31:09;;;;;;;14.02;3.67;;;7.10;99.90;;;;;;5073448;28;20060;-51
2022/05/08 03:33:36;;;;;;;13.68;4.25;;;7.10;99.90;;;;;;5073393;28;20122;-49
2022/05/08 03:36:03;;;;;;;13.98;3.65;;;7.10;99.90;;;;;;5073219;28;20040;-48
2022/05/08 03:38:30;;;;;;;16.35;3.38;;;7.10;99.90;;;;;;5073209;28;20446;-51
2022/05/08 03:40:56;;;;;;;11.95;3.03;;;7.10;99.90;;;;;;5073263;28;20036;-54
2022/05/08 03:43:22;;;;;;;10.63;3.58;;;7.10;99.90;;;;;;5073138;28;20115;-53
2022/05/08 03:45:49;;;;;;;17.23;3.40;;;7.20;99.90;;;;;;5073246;28;20111;-53
2022/05/08 03:48:16;;;;;;;12.00;3.88;;;7.10;99.90;;;;;;5073118;28;20044;-51
2022/05/08 03:50:42;;;;;;;9.45;3.05;;;7.20;99.90;;;;;;5072859;28;20040;-52
2022/05/08 03:53:08;;;;;;;8.73;3.15;;;7.10;99.90;;;;;;5073147;28;20043;-51
2022/05/08 03:55:34;;;;;;;10.75;2.95;;;7.10;99.90;;;;;;5072904;28;20398;-50
2022/05/08 03:58:00;;;;;;;11.30;3.45;;;7.10;99.90;;;;;;5073023;28;20048;-50
2022/05/08 04:00:25;;;;;;;13.07;3.47;;;7.10;99.90;;;;;;5065400;28;20400;-51
2022/05/08 04:02:51;;;;;;;10.65;3.17;;;7.00;99.90;;;;;;5052899;28;20044;-49
2022/05/08 04:05:17;;;;;;;11.95;3.45;;;6.90;99.90;;;;;;5052605;28;20047;-49
2022/05/08 04:07:43;;;;;;;9.57;3.13;;;6.90;99.90;;;;;;5051512;28;20045;-50
2022/05/08 04:10:09;;;;;;;13.43;3.25;;;6.90;99.90;;;;;;5054201;28;20098;-50
2022/05/08 04:12:35;;;;;;;10.38;3.47;;;6.90;99.90;;;;;;5072755;28;20047;-48
2022/05/08 04:15:01;;;;;;;14.07;3.60;;;7.00;99.90;;;;;;5072693;28;20045;-50
2022/05/08 04:17:28;;;;;;;8.93;3.22;;;7.00;99.90;;;;;;5071411;28;20039;-61
2022/05/08 04:19:56;;;;;;;8.30;3.13;;;7.00;99.90;;;;;;5072493;28;20400;-62
2022/05/08 04:25:08;;;;;;;11.77;3.47;;;7.00;99.90;;;;;;5072296;28;20106;-48
2022/05/08 04:27:38;;;;;;;11.30;3.10;;;7.00;99.90;;;;;;5072371;28;20456;-49
2022/05/08 04:30:04;;;;;;;13.23;3.53;;;7.00;99.90;;;;;;5071251;28;20109;-62
2022/05/08 04:32:30;;;;;;;14.73;3.78;;;7.10;99.90;;;;;;5072292;28;20476;-62
2022/05/08 04:34:55;;;;;;;13.30;3.92;;;7.20;99.90;;;;;;5072290;28;20032;-62
2022/05/08 04:37:21;;;;;;;12.75;3.85;;;7.20;99.90;;;;;;5072500;28;20044;-62
2022/05/08 04:39:47;;;;;;;16.67;3.40;;;7.20;99.90;;;;;;5072410;28;20044;-62
2022/05/08 04:42:12;;;;;;;10.52;3.13;;;7.30;99.90;;;;;;5072239;28;20041;-62
2022/05/08 04:44:38;;;;;;;10.45;3.58;;;7.40;99.90;;;;;;5070976;28;20045;-62
2022/05/08 04:47:04;;;;;;;13.55;3.28;;;7.50;99.90;;;;;;5072133;28;20523;-62
2022/05/08 04:49:29;;;;;;;12.02;3.60;;;7.60;99.90;;;;;;5072161;28;20094;-62
2022/05/08 04:51:55;;;;;;;9.50;3.28;;;7.60;99.90;;;;;;5072216;28;20037;-62
2022/05/08 04:54:24;;;;;;;14.05;3.60;;;7.60;99.90;;;;;;5071928;28;20131;-62
2022/05/08 04:56:49;;;;;;;10.15;3.88;;;7.70;99.90;;;;;;5072029;28;20127;-62
2022/05/08 04:59:16;;;;;;;12.18;3.85;;;7.70;99.90;;;;;;5072116;28;20123;-62
2022/05/08 05:01:41;;;;;;;11.57;3.72;;;7.80;99.90;;;;;;5055223;28;20134;-62
2022/05/08 05:04:07;;;;;;;12.70;3.83;;;7.80;99.90;;;;;;5052147;28;20045;-62
2022/05/08 05:06:33;;;;;;;11.20;3.25;;;8.00;99.90;;;;;;5052043;28;20116;-62
2022/05/08 05:08:59;;;;;;;13.25;3.97;;;8.00;99.90;;;;;;5054653;28;20626;-62
2022/05/08 05:11:24;;;;;;;8.43;2.78;;;8.20;99.90;;;;;;5068034;28;20057;-62
2022/05/08 05:13:50;;;;;;;10.85;4.03;;;8.20;99.90;;;;;;5075993;28;20052;-62
2022/05/08 05:16:15;;;;;;;10.50;2.97;;;8.40;99.90;;;;;;5075805;28;20037;-52
2022/05/08 05:18:41;;;;;;;10.70;3.33;;;8.40;99.90;;;;;;5075870;28;20036;-49
2022/05/08 05:21:07;;;;;;;11.05;3.08;;;8.40;99.90;;;;;;5074958;28;20049;-49
2022/05/08 05:23:35;;;;;;;12.13;2.60;;;8.30;99.90;;;;;;5075592;28;20047;-50
2022/05/08 05:26:02;;;;;;;9.30;2.65;;;8.60;99.90;;;;;;5075577;28;20071;-61
2022/05/08 05:28:28;;;;;;;9.40;2.70;;;8.70;99.90;;;;;;5075649;28;20040;-62
2022/05/08 05:30:53;;;;;;;14.95;2.55;;;8.70;99.90;;;;;;5075597;28;20037;-62
2022/05/08 05:33:19;;;;;;;12.73;2.63;;;8.80;99.90;;;;;;5076064;28;20044;-50
2022/05/08 05:35:45;;;;;;;10.52;2.80;;;8.90;99.90;;;;;;5075692;28;20044;-51
2022/05/08 05:38:10;;;;;;;10.70;2.40;;;8.80;99.90;;;;;;5075477;28;20042;-50
2022/05/08 05:40:36;;;;;;;10.57;2.63;;;8.90;99.90;;;;;;5075449;28;20123;-50
2022/05/08 05:43:02;;;;;;;8.93;2.85;;;9.00;99.90;;;;;;5075505;28;20040;-51
2022/05/08 05:45:28;;;;;;;9.73;2.80;;;9.10;99.90;;;;;;5075265;28;20360;-48
2022/05/08 05:47:53;;;;;;;10.00;2.50;;;9.10;99.90;;;;;;5075521;28;20052;-50
2022/05/08 05:50:21;;;;;;;9.88;2.80;;;9.00;99.90;;;;;;5075159;28;20044;-50
2022/05/08 05:52:47;;;;;;;10.70;2.95;;;9.20;99.90;;;;;;5074004;28;20667;-50
2022/05/08 05:55:13;;;;;;;11.23;2.88;;;9.30;99.90;;;;;;5075225;28;20093;-51
2022/05/08 05:57:39;;;;;;;9.48;2.58;;;9.40;99.90;;;;;;5075047;28;20041;-52
2022/05/08 06:00:10;;;;;;;11.15;2.83;;;9.60;99.90;;;;;;5071583;28;20045;-54
2022/05/08 06:02:36;;;;;;;10.93;2.80;;;9.60;99.90;;;;;;5055194;28;20040;-53
2022/05/08 06:05:02;;;;;;;9.45;2.20;;;9.70;99.90;;;;;;5055196;28;20033;-51
2022/05/08 06:07:28;;;;;;;9.63;2.20;;;9.80;99.90;;;;;;5054921;28;20040;-50
2022/05/08 06:09:53;;;;;;;13.20;2.17;;;9.90;99.90;;;;;;5054979;28;20079;-53
2022/05/08 06:12:19;;;;;;;11.23;2.80;;;9.90;99.90;;;;;;5074324;28;20048;-53
2022/05/08 06:14:48;;;;;;;10.68;1.98;;;10.10;99.90;;;;;;5075014;28;20468;-50
2022/05/08 06:17:13;;;;;;;14.77;2.75;;;10.30;99.90;;;;;;5074758;28;20495;-51
2022/05/08 06:19:39;;;;;;;12.65;2.63;;;10.50;99.90;;;;;;5073669;28;20060;-51
2022/05/08 06:22:05;;;;;;;9.23;2.40;;;10.40;99.90;;;;;;5074638;28;20080;-52
2022/05/08 06:24:31;;;;;;;11.18;2.10;;;10.50;99.90;;;;;;5074491;28;20049;-62
2022/05/08 06:26:57;;;;;;;10.93;2.22;;;10.60;99.90;;;;;;5074591;28;20087;-51
2022/05/08 06:29:23;;;;;;;7.18;1.67;;;10.80;99.90;;;;;;5074798;28;20060;-62
2022/05/08 06:31:51;;;;;;;10.55;2.10;;;11.10;99.90;;;;;;5074545;28;20090;-61
2022/05/08 06:34:20;;;;;;;8.63;1.90;;;11.40;99.90;;;;;;5074514;28;20083;-62
2022/05/08 06:36:46;;;;;;;7.85;1.80;;;11.40;99.90;;;;;;5074310;28;20044;-62
2022/05/08 06:39:13;;;;;;;7.50;1.63;;;11.50;99.90;;;;;;5072212;28;20051;-62
2022/05/08 06:41:39;;;;;;;12.40;2.35;;;11.60;99.90;;;;;;5073415;28;20125;-62
2022/05/08 06:44:05;;;;;;;10.93;1.77;;;11.50;99.90;;;;;;5073623;28;20083;-62
2022/05/08 06:46:32;;;;;;;14.00;2.05;;;11.70;99.90;;;;;;5073390;28;20075;-62
2022/05/08 06:48:58;;;;;;;11.27;2.05;;;11.80;99.90;;;;;;5073403;28;20040;-62
2022/05/08 06:51:24;;;;;;;9.60;1.70;;;11.80;99.90;;;;;;5073176;28;20075;-62
2022/05/08 06:53:49;;;;;;;10.95;2.40;;;11.70;99.90;;;;;;5072942;28;20079;-62
2022/05/08 06:56:16;;;;;;;7.55;1.75;;;11.70;99.90;;;;;;5072926;28;20036;-62
2022/05/08 07:01:34;;;;;;;14.40;2.00;;;12.10;99.90;;;;;;5054289;28;20425;-62
2022/05/08 07:04:00;;;;;;;8.50;1.60;;;12.10;99.90;;;;;;5063038;28;20135;-61
2022/05/08 07:06:26;;;;;;;10.60;1.88;;;12.20;99.90;;;;;;5053215;28;20631;-62
2022/05/08 07:08:51;;;;;;;12.43;1.90;;;12.30;99.90;;;;;;5052850;28;20103;-62
2022/05/08 07:11:17;;;;;;;9.23;1.90;;;12.40;99.90;;;;;;5063664;28;20040;-62
2022/05/08 07:13:43;;;;;;;10.07;2.00;;;12.60;99.90;;;;;;5072717;28;20045;-62
2022/05/08 07:16:09;;;;;;;10.60;2.20;;;12.70;99.90;;;;;;5072755;28;20033;-62
2022/05/08 07:18:35;;;;;;;13.65;2.35;;;12.50;99.90;;;;;;5072666;28;20043;-62
2022/05/08 07:21:00;;;;;;;11.70;2.13;;;12.60;99.90;;;;;;5072575;28;20064;-49
2022/05/08 07:23:26;;;;;;;12.27;2.10;;;12.60;99.90;;;;;;5072591;28;20040;-50
2022/05/08 07:25:52;;;;;;;10.27;2.00;;;12.80;99.90;;;;;;5072369;28;20060;-49
2022/05/08 07:28:17;;;;;;;9.68;2.58;;;12.90;99.90;;;;;;5072758;28;20043;-50
2022/05/08 07:30:43;;;;;;;11.05;1.75;;;12.90;99.90;;;;;;5072451;28;20484;-51
2022/05/08 07:33:09;;;;;;;9.77;2.13;;;13.00;99.90;;;;;;5072503;28;20762;-51
2022/05/08 07:38:21;;;;;;;13.13;2.15;;;12.80;99.90;;;;;;5072165;28;20110;-49
2022/05/08 07:40:50;;;;;;;12.48;2.47;;;13.10;99.90;;;;;;5072067;28;20048;-54
2022/05/08 07:43:16;;;;;;;11.18;2.20;;;13.20;99.90;;;;;;5070740;28;20128;-51
2022/05/08 07:45:45;;;;;;;13.05;2.30;;;13.10;99.90;;;;;;5072015;28;20127;-54
2022/05/08 07:48:11;;;;;;;10.80;2.28;;;13.10;99.90;;;;;;5072018;28;20487;-50
2022/05/08 07:50:37;;;;;;;11.63;2.10;;;12.90;99.90;;;;;;5072144;28;20051;-49
2022/05/08 07:53:02;;;;;;;13.75;2.53;;;13.10;99.90;;;;;;5072039;28;20048;-52
2022/05/08 07:55:28;;;;;;;9.68;1.98;;;13.00;99.90;;;;;;5071981;28;20045;-62
2022/05/08 07:57:54;;;;;;;7.22;1.60;;;13.20;99.90;;;;;;5071967;28;20618;-61
2022/05/08 08:00:19;;;;;;;11.07;2.33;;;13.20;99.90;;;;;;5066299;28;20393;-62
2022/05/08 08:02:45;;;;;;;10.60;2.17;;;13.30;99.90;;;;;;5051807;28;20129;-62
2022/05/08 08:05:11;;;;;;;10.77;2.35;;;13.60;99.90;;;;;;5054284;28;20065;-61
2022/05/08 08:07:37;;;;;;;10.18;1.70;;;13.50;99.90;;;;;;5060168;28;20059;-62
2022/05/08 08:10:04;;;;;;;11.25;2.20;;;13.40;99.90;;;;;;5060770;28;20033;-61
2022/05/08 08:12:30;;;;;;;7.78;2.13;;;13.40;99.90;;;;;;5060639;28;20404;-62
2022/05/08 08:14:56;;;;;;;10.82;2.25;;;13.50;99.90;;;;;;5058718;28;20084;-61
2022/05/08 08:17:22;;;;;;;10.38;2.00;;;13.50;99.90;;;;;;5059709;28;20147;-62
2022/05/08 08:19:48;;;;;;;10.90;1.98;;;13.40;99.90;;;;;;5062314;28;20098;-62
2022/05/08 08:22:14;;;;;;;11.27;2.22;;;13.60;99.90;;;;;;5054596;28;20106;-62
2022/05/08 08:24:40;;;;;;;11.57;2.35;;;13.60;99.90;;;;;;5050861;28;20049;-62
2022/05/08 08:27:09;;;;;;;14.25;3.50;;;13.60;99.90;;;;;;5052378;28;20083;-62
2022/05/08 08:29:35;;;;;;;8.75;1.70;;;13.40;99.90;;;;;;5052200;28;20044;-62
2022/05/08 08:32:01;;;;;;;10.77;2.10;;;13.40;99.90;;;;;;5052236;28;20032;-62
2022/05/08 08:34:26;;;;;;;7.57;1.77;;;13.50;99.90;;;;;;5052439;28;20370;-61
2022/05/08 08:36:52;;;;;;;9.43;1.70;;;13.60;99.90;;;;;;5052134;28;20044;-62
2022/05/08 08:39:19;;;;;;;11.57;2.25;;;13.80;99.90;;;;;;5052185;28;20059;-62
2022/05/08 08:41:53;;;;;;;10.10;1.77;;;13.60;99.90;;;;;;5051992;28;20106;-62
2022/05/08 08:50:02;;;;;;;9.65;2.28;;;13.70;99.90;;;;;;5052149;28;20045;-62
2022/05/08 08:52:27;;;;;;;13.50;2.25;;;13.60;99.90;;;;;;5051942;28;20040;-62
2022/05/08 08:54:54;;;;;;;10.05;2.33;;;13.60;99.90;;;;;;5051773;28;20051;-62
2022/05/08 08:57:19;;;;;;;8.70;2.00;;;13.60;99.90;;;;;;5052051;28;20049;-62
2022/05/08 08:59:45;;;;;;;11.15;2.55;;;13.80;99.90;;;;;;5052640;28;20071;-62
2022/05/08 09:02:16;;;;;;;11.55;2.30;;;14.00;99.90;;;;;;5072056;28;20040;-62
2022/05/08 09:04:44;;;;;;;8.75;2.35;;;13.80;99.90;;;;;;5071727;28;20127;-62
2022/05/08 09:07:41;;;;;;;12.88;2.42;;;13.60;99.90;;;;;;5071514;28;20064;-62
2022/05/08 09:10:09;;;;;;;10.65;2.60;;;13.70;99.90;;;;;;5071594;28;20396;-62
2022/05/08 09:12:36;;;;;;;10.48;2.25;;;13.80;99.90;;;;;;5071707;28;20504;-62
2022/05/08 09:15:22;;;;;;;11.40;2.80;;;13.40;99.90;;;;;;5071729;28;20089;-62
2022/05/08 09:17:51;;;;;;;13.60;2.47;;;13.10;99.90;;;;;;5067572;28;20089;-62
2022/05/08 09:20:27;;;;;;;9.27;2.45;;;13.30;99.90;;;;;;5061474;28;20047;-62
2022/05/08 09:23:10;;;;;;;10.18;2.35;;;13.60;99.90;;;;;;5061909;28;20068;-49
2022/05/08 09:25:53;;;;;;;11.57;2.60;;;13.60;99.90;;;;;;5060978;28;20049;-50
2022/05/08 09:28:29;;;;;;;10.40;2.28;;;13.70;99.90;;;;;;5059662;28;20584;-50
2022/05/08 09:31:09;;;;;;;14.45;2.47;;;13.90;99.90;;;;;;5070924;28;20032;-51
2022/05/08 09:33:45;;;;;;;10.32;2.38;;;13.80;99.90;;;;;;5071454;28;20724;-48
2022/05/08 09:36:18;;;;;;;9.35;2.15;;;13.90;99.90;;;;;;5071559;28;20485;-50
2022/05/08 09:38:45;;;;;;;11.68;2.40;;;13.90;99.90;;;;;;5071195;28;20115;-48
2022/05/08 09:41:11;;;;;;;12.13;2.58;;;14.00;99.90;;;;;;5071604;28;20443;-49
2022/05/08 09:43:37;;;;;;;11.95;2.13;;;14.10;99.90;;;;;;5071600;28;20051;-62
2022/05/08 09:46:04;;;;;;;10.88;2.00;;;14.10;99.90;;;;;;5071850;28;20064;-63
2022/05/08 09:48:33;;;;;;;12.55;2.53;;;14.30;99.90;;;;;;5071704;28;20044;-52
2022/05/08 09:51:09;;;;;;;11.02;2.08;;;14.20;99.90;;;;;;5070286;28;20040;-50
2022/05/08 09:53:38;;;;;;;11.48;2.30;;;14.20;99.90;;;;;;5071687;28;20044;-49
2022/05/08 09:56:09;;;;;;;11.88;3.08;;;14.10;99.90;;;;;;5074986;28;20048;-62
2022/05/08 09:58:36;;;;;;;9.00;2.25;;;14.10;99.90;;;;;;5075062;28;20438;-62
2022/05/08 10:01:02;;;;;;;10.30;2.03;;;14.30;99.90;;;;;;5063489;28;20041;-61
2022/05/08 10:03:30;;;;;;;14.88;3.08;;;14.40;99.90;;;;;;5053513;28;20045;-62
2022/05/08 10:05:59;;;;;;;10.82;2.53;;;14.20;99.90;;;;;;5054084;28;20080;-53
2022/05/08 10:08:30;;;;;;;10.73;2.63;;;13.90;99.90;;;;;;5053127;28;20751;-51
2022/05/08 10:13:53;;;;;;;9.63;2.53;;;14.00;99.90;;;;;;5074612;28;20070;-51
2022/05/08 10:16:57;;;;;;;12.32;2.40;;;13.90;99.90;;;;;;5074531;28;20040;-52
2022/05/08 10:19:26;;;;;;;14.00;2.80;;;13.90;99.90;;;;;;5056314;28;20059;-50
2022/05/08 10:21:57;;;;;;;10.07;2.45;;;14.10;99.90;;;;;;5074703;28;20119;-48
2022/05/08 10:24:38;;;;;;;9.60;2.43;;;13.80;99.90;;;;;;5074228;28;20514;-52
2022/05/08 10:27:11;;;;;;;12.45;2.30;;;14.10;99.90;;;;;;5074729;28;20662;-49
2022/05/08 10:29:41;;;;;;;9.88;2.05;;;14.30;99.90;;;;;;5074485;28;20036;-53
2022/05/08 10:32:09;;;;;;;12.00;2.67;;;14.20;99.90;;;;;;5074342;28;20037;-53
2022/05/08 10:34:37;;;;;;;11.27;2.03;;;14.40;99.90;;;;;;5074492;28;20105;-52
2022/05/08 10:37:14;;;;;;;11.80;2.42;;;14.30;99.90;;;;;;5074352;28;20040;-51
2022/05/08 10:39:43;;;;;;;9.48;2.30;;;14.20;99.90;;;;;;5074263;28;20102;-51
2022/05/08 10:42:24;;;;;;;9.77;2.20;;;14.00;99.90;;;;;;5074057;28;20044;-53
2022/05/08 10:44:51;;;;;;;11.75;2.80;;;14.10;99.90;;;;;;5073878;28;20542;-53
2022/05/08 10:47:41;;;;;;;13.05;2.88;;;14.20;99.90;;;;;;5073954;28;20044;-50
2022/05/08 10:50:09;;;;;;;11.93;2.35;;;13.90;99.90;;;;;;5072830;28;20045;-50
2022/05/08 10:52:40;;;;;;;11.70;2.40;;;14.40;99.90;;;;;;5073866;28;20036;-51
2022/05/08 10:55:08;;;;;;;13.73;2.60;;;14.30;99.90;;;;;;5073885;28;20048;-50
2022/05/08 10:57:37;;;;;;;12.40;3.42;;;14.50;99.90;;;;;;5073885;28;20040;-51
2022/05/08 11:00:09;;;;;;;10.55;2.72;;;14.60;99.90;;;;;;5070527;28;20033;-52
2022/05/08 11:02:41;;;;;;;12.07;2.58;;;14.50;99.90;;;;;;5053961;28;20036;-55
2022/05/08 11:05:12;;;;;;;9.23;2.17;;;14.40;99.90;;;;;;5053095;28;20044;-50
2022/05/08 11:07:40;;;;;;;11.40;2.15;;;14.60;99.90;;;;;;5054585;28;20447;-62
2022/05/08 11:10:16;;;;;;;11.13;2.55;;;14.60;99.90;;;;;;5063650;28;20045;-62
2022/05/08 11:13:05;;;;;;;11.88;2.67;;;14.70;99.90;;;;;;5061849;28;20090;-62
2022/05/08 11:15:36;;;;;;;10.85;2.13;;;14.50;99.90;;;;;;5064317;28;20451;-62
2022/05/08 11:18:07;;;;;;;10.57;2.03;;;14.50;99.90;;;;;;5067704;28;20044;-62
2022/05/08 11:20:37;;;;;;;8.60;2.10;;;14.70;99.90;;;;;;5073303;28;20052;-61
2022/05/08 11:23:05;;;;;;;10.75;2.30;;;14.80;99.90;;;;;;5073595;28;20044;-51
2022/05/08 11:25:32;;;;;;;10.07;2.22;;;15.00;99.90;;;;;;5071721;28;20056;-51
2022/05/08 11:27:58;;;;;;;10.40;2.20;;;15.10;99.90;;;;;;5073175;28;20400;-49
2022/05/08 11:30:43;;;;;;;9.18;2.15;;;15.00;99.90;;;;;;5073085;28;20078;-53
2022/05/08 11:36:04;;;;;;;11.18;2.40;;;15.00;99.90;;;;;;5073378;28;20456;-62
2022/05/08 11:38:52;;;;;;;11.73;2.42;;;15.10;99.90;;;;;;5072939;28;20655;-62
2022/05/08 11:41:19;;;;;;;11.65;2.60;;;14.90;99.90;;;;;;5072996;28;20048;-62
2022/05/08 11:43:49;;;;;;;12.98;2.50;;;15.10;99.90;;;;;;5072706;28;20416;-62
2022/05/08 11:46:17;;;;;;;46.30;23.70;;;15.10;99.90;;;;;;5073025;28;20040;-62
2022/05/08 11:48:46;;;;;;;9.50;3.25;;;15.10;99.90;;;;;;5072599;28;20040;-50
2022/05/08 11:51:15;;;;;;;10.45;2.65;;;15.20;99.90;;;;;;5072763;28;20041;-51
2022/05/08 11:53:43;;;;;;;9.52;2.20;;;15.20;99.90;;;;;;5071852;28;20699;-50
2022/05/08 11:56:24;;;;;;;8.50;2.30;;;15.30;99.90;;;;;;5072468;28;20123;-51
2022/05/08 11:58:50;;;;;;;13.68;3.13;;;15.40;99.90;;;;;;5072698;28;20111;-62
2022/05/08 12:01:27;;;;;;;10.15;2.90;;;14.90;99.90;;;;;;5058259;28;20033;-61
2022/05/08 12:03:53;;;;;;;10.82;2.80;;;15.00;99.90;;;;;;5052720;28;20437;-62
2022/05/08 12:06:21;;;;;;;16.63;3.00;;;15.00;99.90;;;;;;5052533;28;20047;-62
2022/05/08 12:08:46;;;;;;;10.98;2.85;;;15.10;99.90;;;;;;5051281;28;20041;-61
2022/05/08 12:11:37;;;;;;;10.60;2.70;;;15.20;99.90;;;;;;5062897;28;20090;-62
2022/05/08 12:14:07;;;;;;;9.00;2.40;;;15.10;99.90;;;;;;5072570;28;20032;-62
2022/05/08 12:16:34;;;;;;;8.32;2.50;;;15.20;99.90;;;;;;5072576;28;20381;-62
2022/05/08 12:19:15;;;;;;;7.80;2.03;;;15.20;99.90;;;;;;5071682;28;20041;-51
2022/05/08 12:21:43;;;;;;;8.73;2.13;;;15.10;99.90;;;;;;5071871;28;20040;-53
2022/05/08 12:24:11;;;;;;;10.18;2.70;;;15.00;99.90;;;;;;5059765;28;20093;-52
2022/05/08 12:26:37;;;;;;;12.63;2.67;;;14.90;99.90;;;;;;5052382;28;20052;-52
2022/05/08 12:29:06;;;;;;;10.32;2.50;;;14.80;99.90;;;;;;5050840;28;20521;-50
2022/05/08 12:31:32;;;;;;;11.93;2.47;;;15.00;99.90;;;;;;5052078;28;20053;-50
2022/05/08 12:33:57;;;;;;;12.50;3.03;;;15.10;99.90;;;;;;5052383;28;20150;-62
2022/05/08 12:36:23;;;;;;;12.05;1.63;;;15.30;99.90;;;;;;5052252;28;20080;-62
2022/05/08 12:38:49;;;;;;;11.68;2.45;;;15.10;99.90;;;;;;5050900;28;20045;-61
2022/05/08 12:41:15;;;;;;;10.90;2.50;;;15.20;99.90;;;;;;5052083;28;20061;-62
2022/05/08 12:43:40;;;;;;;10.25;2.13;;;15.00;99.90;;;;;;5051902;28;20485;-62
2022/05/08 12:46:06;;;;;;;10.40;2.20;;;15.20;99.90;;;;;;5049312;28;20067;-61
2022/05/08 12:48:32;;;;;;;13.23;2.30;;;15.40;99.90;;;;;;5048689;28;20045;-60
2022/05/08 12:50:58;;;;;;;12.30;2.35;;;15.40;99.90;;;;;;5048825;28;20060;-62
2022/05/08 12:53:24;;;;;;;10.88;2.13;;;15.20;99.90;;;;;;5047476;28;20540;-62
2022/05/08 12:55:49;;;;;;;11.10;2.22;;;15.20;99.90;;;;;;5047751;28;20047;-61
2022/05/08 13:00:59;;;;;;;10.85;2.70;;;14.90;99.90;;;;;;5049378;28;20055;-63
2022/05/08 13:03:25;;;;;;;9.75;2.38;;;15.10;99.90;;;;;;5051003;28;20041;-62
2022/05/08 13:05:51;;;;;;;7.95;2.13;;;15.00;99.90;;;;;;5048536;28;20040;-62
2022/05/08 13:08:17;;;;;;;10.48;2.00;;;14.80;99.90;;;;;;5048469;28;20055;-62
2022/05/08 13:10:43;;;;;;;11.73;2.65;;;14.70;99.90;;;;;;5050880;28;20040;-53
2022/05/08 13:13:09;;;;;;;13.00;3.03;;;14.90;99.90;;;;;;5048169;28;20041;-54